createdAt,value
2018-12-22T00:00:24.182Z,93.38
2018-12-22T00:02:52.555Z,94.17
2018-12-22T00:05:20.847Z,95.52
2018-12-22T00:07:49.132Z,95.10
2018-12-22T00:13:14.160Z,95.61
2018-12-22T00:15:42.472Z,93.86
2018-12-22T00:18:10.732Z,94.14
2018-12-22T00:20:38.983Z,94.02
2018-12-22T00:23:07.304Z,94.35
2018-12-22T00:25:35.548Z,94.64
2018-12-22T00:28:03.800Z,94.60
2018-12-22T00:30:32.044Z,94.97
2018-12-22T00:33:00.312Z,94.97
2018-12-22T00:35:28.560Z,94.14
2018-12-22T00:37:56.824Z,94.93
2018-12-22T00:40:25.064Z,95.46
2018-12-22T00:42:53.376Z,95.79
2018-12-22T00:45:21.628Z,95.86
2018-12-22T00:47:50.062Z,95.64
2018-12-22T00:50:18.356Z,96.94
2018-12-22T00:52:46.597Z,96.15
2018-12-22T00:55:15.060Z,96.24
2018-12-22T00:57:43.400Z,96.14
2018-12-22T01:00:13.732Z,97.14
2018-12-22T01:02:41.999Z,97.27
2018-12-22T01:05:10.244Z,97.42
2018-12-22T01:07:38.484Z,96.71
2018-12-22T01:10:08.685Z,97.33
2018-12-22T01:12:36.928Z,96.92
2018-12-22T01:15:06.152Z,97.18
2018-12-22T01:17:34.668Z,98.62
2018-12-22T01:20:03.372Z,99.76
2018-12-22T01:22:32.277Z,100.00
2018-12-22T01:25:00.736Z,100.00
2018-12-22T01:27:28.985Z,100.00
2018-12-22T01:29:57.228Z,100.00
2018-12-22T01:32:25.488Z,100.00
2018-12-22T01:34:53.744Z,100.00
2018-12-22T01:37:22.008Z,100.00
2018-12-22T01:39:50.260Z,100.00
2018-12-22T01:42:18.834Z,100.00
2018-12-22T01:44:47.072Z,100.00
2018-12-22T01:47:15.381Z,99.36
2018-12-22T01:49:43.637Z,99.83
2018-12-22T01:52:11.896Z,99.87
2018-12-22T01:54:40.139Z,99.09
2018-12-22T01:57:08.456Z,100.00
2018-12-22T01:59:36.723Z,100.00
2018-12-22T02:02:04.989Z,100.00
2018-12-22T02:04:33.543Z,99.65
2018-12-22T02:07:01.792Z,100.00
2018-12-22T02:09:30.039Z,100.00
2018-12-22T02:11:58.300Z,99.03
2018-12-22T02:14:26.599Z,99.52
2018-12-22T02:16:54.859Z,98.40
2018-12-22T02:19:23.105Z,98.55
2018-12-22T02:21:51.576Z,98.36
2018-12-22T02:24:19.817Z,96.80
2018-12-22T02:26:48.110Z,95.32
2018-12-22T02:29:16.412Z,93.51
2018-12-22T02:31:44.668Z,93.38
2018-12-22T02:34:12.911Z,92.15
2018-12-22T02:36:41.274Z,91.14
2018-12-22T02:39:09.513Z,90.18
2018-12-22T02:41:37.772Z,88.84
2018-12-22T02:44:06.020Z,88.53
2018-12-22T02:46:34.283Z,87.99
2018-12-22T02:49:02.532Z,87.38
2018-12-22T02:51:30.838Z,85.86
2018-12-22T02:53:59.205Z,86.97
2018-12-22T02:56:27.546Z,86.15
2018-12-22T02:58:55.845Z,85.73
2018-12-22T03:01:24.109Z,85.45
2018-12-22T03:03:52.356Z,84.70
2018-12-22T03:06:20.619Z,84.20
2018-12-22T03:08:48.885Z,84.31
2018-12-22T03:11:17.134Z,83.08
2018-12-22T03:13:45.412Z,83.87
2018-12-22T03:16:13.690Z,82.87
2018-12-22T03:18:41.948Z,82.00
2018-12-22T03:21:10.204Z,82.51
2018-12-22T03:23:38.679Z,81.22
2018-12-22T03:26:07.506Z,81.07
2018-12-22T03:28:35.757Z,80.06
2018-12-22T03:31:04.080Z,79.45
2018-12-22T03:33:32.451Z,77.76
2018-12-22T03:36:00.701Z,77.81
2018-12-22T03:38:29.008Z,77.33
2018-12-22T03:40:57.275Z,77.63
2018-12-22T03:43:25.880Z,78.15
2018-12-22T03:45:54.211Z,78.10
2018-12-22T03:48:22.464Z,77.62
2018-12-22T03:50:50.728Z,77.69
2018-12-22T03:53:18.993Z,78.30
2018-12-22T03:55:47.252Z,78.01
2018-12-22T03:58:15.590Z,77.82
2018-12-22T04:00:43.988Z,77.44
2018-12-22T04:03:12.249Z,76.84
2018-12-22T04:05:40.507Z,77.70
2018-12-22T04:08:08.766Z,76.33
2018-12-22T04:10:37.117Z,76.23
2018-12-22T04:13:05.442Z,75.89
2018-12-22T04:15:33.738Z,74.56
2018-12-22T04:18:01.983Z,75.92
2018-12-22T04:20:30.252Z,76.06
2018-12-22T04:22:58.512Z,75.74
2018-12-22T04:25:26.759Z,75.38
2018-12-22T04:27:55.458Z,76.14
2018-12-22T04:30:23.711Z,74.56
2018-12-22T04:32:51.957Z,73.52
2018-12-22T04:35:20.233Z,74.02
2018-12-22T04:37:48.484Z,73.61
2018-12-22T04:40:16.737Z,74.03
2018-12-22T04:42:45.155Z,73.92
2018-12-22T04:45:13.435Z,74.19
2018-12-22T04:47:41.689Z,73.67
2018-12-22T04:50:10.023Z,73.10
2018-12-22T04:52:38.287Z,73.65
2018-12-22T04:55:06.539Z,74.49
2018-12-22T04:57:34.784Z,71.87
2018-12-22T05:00:03.162Z,72.03
2018-12-22T05:02:31.424Z,72.28
2018-12-22T05:04:59.688Z,71.09
2018-12-22T05:07:27.952Z,69.99
2018-12-22T05:09:56.203Z,70.13
2018-12-22T05:12:24.468Z,70.30
2018-12-22T05:14:52.801Z,70.13
2018-12-22T05:17:21.129Z,71.37
2018-12-22T05:19:49.408Z,70.84
2018-12-22T05:22:17.678Z,70.36
2018-12-22T05:24:45.968Z,69.58
2018-12-22T05:27:14.232Z,71.01
2018-12-22T05:29:51.614Z,70.01
2018-12-22T05:32:13.288Z,70.48
2018-12-22T05:34:41.547Z,70.22
2018-12-22T05:37:09.821Z,71.17
2018-12-22T05:39:38.079Z,71.73
2018-12-22T05:42:06.345Z,72.01
2018-12-22T05:44:34.590Z,70.90
2018-12-22T05:47:02.899Z,70.17
2018-12-22T05:49:31.208Z,70.05
2018-12-22T05:52:00.196Z,70.36
2018-12-22T05:54:28.433Z,69.79
2018-12-22T05:56:56.680Z,69.42
2018-12-22T05:59:25.152Z,68.36
2018-12-22T06:01:54.686Z,68.74
2018-12-22T06:04:22.935Z,69.14
2018-12-22T06:06:51.297Z,69.35
2018-12-22T06:09:19.551Z,67.89
2018-12-22T06:11:47.804Z,68.23
2018-12-22T06:14:16.075Z,67.83
2018-12-22T06:16:44.582Z,67.07
2018-12-22T06:19:12.847Z,68.44
2018-12-22T06:21:41.364Z,68.38
2018-12-22T06:24:09.616Z,68.10
2018-12-22T06:26:37.860Z,66.80
2018-12-22T06:29:06.145Z,67.84
2018-12-22T06:31:34.460Z,66.67
2018-12-22T06:34:02.727Z,67.14
2018-12-22T06:36:30.997Z,67.35
2018-12-22T06:38:59.244Z,66.99
2018-12-22T06:41:27.557Z,68.00
2018-12-22T06:43:55.886Z,70.35
2018-12-22T06:46:24.132Z,68.61
2018-12-22T06:48:52.397Z,68.21
2018-12-22T06:51:20.647Z,67.79
2018-12-22T06:53:48.903Z,67.14
2018-12-22T06:56:17.204Z,67.99
2018-12-22T06:58:45.666Z,67.55
2018-12-22T07:01:13.909Z,66.65
2018-12-22T07:03:42.146Z,66.38
2018-12-22T07:06:10.427Z,66.89
2018-12-22T07:08:38.702Z,66.78
2018-12-22T07:11:07.013Z,66.65
2018-12-22T07:13:36.149Z,66.61
2018-12-22T07:16:04.739Z,65.56
2018-12-22T07:18:32.971Z,66.72
2018-12-22T07:21:01.227Z,66.28
2018-12-22T07:23:29.491Z,66.14
2018-12-22T07:25:57.743Z,66.70
2018-12-22T07:28:26.008Z,67.12
2018-12-22T07:30:54.639Z,66.10
2018-12-22T07:33:23.050Z,66.60
2018-12-22T07:35:51.314Z,67.30
2018-12-22T07:38:19.572Z,67.86
2018-12-22T07:40:47.826Z,68.39
2018-12-22T07:43:16.099Z,68.72
2018-12-22T07:45:44.348Z,68.62
2018-12-22T07:48:12.707Z,69.40
2018-12-22T07:50:41.026Z,69.55
2018-12-22T07:53:09.281Z,70.14
2018-12-22T07:55:37.532Z,70.98
2018-12-22T07:58:05.799Z,70.26
2018-12-22T08:00:35.153Z,70.16
2018-12-22T08:03:03.674Z,71.61
2018-12-22T08:05:38.682Z,73.41
2018-12-22T08:08:02.248Z,73.64
2018-12-22T08:10:30.565Z,73.67
2018-12-22T08:12:59.004Z,74.35
2018-12-22T08:15:27.316Z,75.15
2018-12-22T08:17:55.569Z,75.24
2018-12-22T08:20:23.889Z,75.80
2018-12-22T08:22:52.168Z,74.52
2018-12-22T08:25:20.503Z,75.85
2018-12-22T08:27:48.752Z,77.32
2018-12-22T08:30:17.020Z,78.61
2018-12-22T08:32:45.287Z,80.22
2018-12-22T08:35:13.716Z,81.30
2018-12-22T08:37:41.985Z,81.45
2018-12-22T08:40:10.657Z,82.36
2018-12-22T08:42:38.907Z,80.74
2018-12-22T08:45:07.936Z,80.62
2018-12-22T08:47:36.245Z,77.71
2018-12-22T08:50:09.285Z,79.47
2018-12-22T08:52:37.286Z,79.11
2018-12-22T08:55:06.926Z,80.53
2018-12-22T08:57:35.165Z,82.26
2018-12-22T09:00:04.871Z,81.76
2018-12-22T09:02:33.153Z,79.76
2018-12-22T09:05:01.397Z,79.52
2018-12-22T09:07:29.685Z,81.44
2018-12-22T09:09:57.984Z,82.83
2018-12-22T09:12:26.508Z,81.68
2018-12-22T09:14:54.749Z,79.69
2018-12-22T09:17:23.193Z,79.13
2018-12-22T09:19:52.257Z,77.37
2018-12-22T09:22:20.621Z,78.47
2018-12-22T09:24:48.860Z,81.33
2018-12-22T09:27:17.132Z,83.05
2018-12-22T09:29:45.360Z,85.58
2018-12-22T09:32:13.601Z,86.62
2018-12-22T09:34:41.873Z,86.38
2018-12-22T09:37:10.116Z,85.26
2018-12-22T09:39:38.395Z,84.29
2018-12-22T09:42:06.644Z,82.08
2018-12-22T09:44:34.907Z,79.96
2018-12-22T09:47:03.255Z,78.76
2018-12-22T09:49:31.512Z,78.27
2018-12-22T09:51:59.767Z,74.79
2018-12-22T09:54:28.045Z,74.98
2018-12-22T09:56:56.296Z,75.34
2018-12-22T09:59:24.590Z,75.34
2018-12-22T10:01:52.829Z,75.71
2018-12-22T10:04:21.086Z,77.71
2018-12-22T10:06:49.409Z,80.95
2018-12-22T10:09:17.688Z,80.80
2018-12-22T10:11:45.928Z,79.34
2018-12-22T10:14:14.187Z,78.68
2018-12-22T10:16:42.484Z,79.57
2018-12-22T10:19:10.755Z,78.08
2018-12-22T10:21:39.008Z,78.36
2018-12-22T10:24:07.475Z,79.37
2018-12-22T10:26:35.713Z,79.42
2018-12-22T10:29:04.026Z,78.88
2018-12-22T10:31:32.684Z,79.22
2018-12-22T10:34:00.970Z,79.10
2018-12-22T10:36:29.252Z,77.44
2018-12-22T10:38:57.562Z,76.26
2018-12-22T10:41:25.843Z,73.69
2018-12-22T10:43:54.120Z,73.40
2018-12-22T10:46:22.377Z,72.02
2018-12-22T10:48:50.673Z,72.25
2018-12-22T10:51:24.239Z,71.20
2018-12-22T10:53:49.241Z,70.83
2018-12-22T10:56:17.508Z,71.33
2018-12-22T10:58:45.808Z,71.43
2018-12-22T11:01:14.068Z,70.13
2018-12-22T11:03:42.356Z,71.52
2018-12-22T11:06:10.607Z,70.15
2018-12-22T11:08:39.039Z,69.81
2018-12-22T11:11:07.328Z,69.03
2018-12-22T11:13:36.368Z,68.90
2018-12-22T11:16:04.614Z,67.83
2018-12-22T11:18:32.899Z,68.00
2018-12-22T11:21:01.184Z,67.56
2018-12-22T11:23:29.471Z,67.24
2018-12-22T11:25:57.744Z,66.60
2018-12-22T11:28:26.009Z,66.81
2018-12-22T11:30:55.080Z,66.55
2018-12-22T11:33:23.360Z,66.66
2018-12-22T11:35:51.702Z,67.11
2018-12-22T11:38:20.013Z,67.00
2018-12-22T11:40:48.256Z,67.44
2018-12-22T11:43:16.540Z,68.54
2018-12-22T11:45:44.780Z,68.70
2018-12-22T11:48:16.291Z,68.40
2018-12-22T11:50:44.548Z,69.77
2018-12-22T11:53:12.796Z,69.30
2018-12-22T11:55:41.081Z,69.09
2018-12-22T11:58:09.321Z,68.91
2018-12-22T12:00:40.447Z,69.48
2018-12-22T12:03:08.801Z,68.91
2018-12-22T12:05:37.075Z,69.02
2018-12-22T12:08:05.307Z,69.68
2018-12-22T12:10:33.684Z,69.44
2018-12-22T12:13:01.923Z,69.01
2018-12-22T12:15:34.764Z,67.99
2018-12-22T12:20:56.430Z,67.63
2018-12-22T12:23:24.663Z,68.65
2018-12-22T12:25:53.182Z,68.78
2018-12-22T12:28:21.419Z,69.63
2018-12-22T12:30:49.674Z,68.21
2018-12-22T12:33:17.948Z,69.63
2018-12-22T12:35:46.229Z,69.43
2018-12-22T12:38:14.469Z,70.15
2018-12-22T12:40:42.807Z,70.23
2018-12-22T12:43:11.201Z,70.77
2018-12-22T12:45:39.655Z,70.37
2018-12-22T12:48:07.901Z,70.89
2018-12-22T12:50:36.259Z,70.42
2018-12-22T12:53:09.580Z,70.69
2018-12-22T12:55:34.838Z,70.26
2018-12-22T12:58:03.212Z,71.24
2018-12-22T13:00:31.566Z,70.30
2018-12-22T13:02:59.807Z,70.35
2018-12-22T13:05:28.103Z,70.23
2018-12-22T13:07:56.349Z,71.82
2018-12-22T13:10:24.865Z,70.87
2018-12-22T13:15:38.999Z,70.34
2018-12-22T13:18:07.240Z,70.86
2018-12-22T13:20:35.529Z,71.45
2018-12-22T13:23:03.814Z,70.65
2018-12-22T13:25:32.079Z,69.65
2018-12-22T13:28:00.309Z,70.26
2018-12-22T13:30:28.588Z,71.09
2018-12-22T13:32:57.122Z,71.02
2018-12-22T13:35:25.495Z,70.89
2018-12-22T13:37:53.982Z,70.48
2018-12-22T13:40:22.254Z,69.60
2018-12-22T13:42:50.495Z,69.31
2018-12-22T13:45:18.881Z,69.29
2018-12-22T13:47:47.428Z,69.94
2018-12-22T13:50:16.078Z,69.77
2018-12-22T13:52:44.472Z,70.77
2018-12-22T13:55:12.754Z,70.54
2018-12-22T13:57:44.188Z,69.96
2018-12-22T14:00:23.752Z,70.13
2018-12-22T14:02:52.031Z,70.31
2018-12-22T14:05:24.576Z,69.73
2018-12-22T14:07:52.826Z,68.88
2018-12-22T14:10:22.835Z,69.85
2018-12-22T14:12:51.072Z,70.78
2018-12-22T14:15:25.027Z,70.38
2018-12-22T14:18:18.692Z,70.13
2018-12-22T14:20:46.977Z,70.26
2018-12-22T14:23:15.220Z,70.39
2018-12-22T14:25:43.718Z,70.30
2018-12-22T14:28:11.964Z,70.85
2018-12-22T14:30:40.306Z,70.25
2018-12-22T14:33:08.581Z,70.70
2018-12-22T14:35:37.872Z,71.21
2018-12-22T14:38:06.533Z,71.24
2018-12-22T14:40:34.824Z,70.80
2018-12-22T14:43:03.109Z,70.59
2018-12-22T14:45:31.363Z,71.12
2018-12-22T14:50:37.953Z,71.47
2018-12-22T14:53:06.352Z,71.49
2018-12-22T14:55:34.600Z,71.08
2018-12-22T14:58:04.009Z,71.08
2018-12-22T15:00:32.347Z,71.66
2018-12-22T15:03:00.597Z,71.65
2018-12-22T15:05:28.872Z,72.45
2018-12-22T15:07:57.268Z,72.11
2018-12-22T15:10:25.520Z,72.48
2018-12-22T15:12:53.812Z,72.36
2018-12-22T15:15:22.057Z,72.29
2018-12-22T15:17:50.570Z,72.22
2018-12-22T15:20:26.500Z,73.06
2018-12-22T15:22:54.991Z,72.71
2018-12-22T15:25:23.324Z,73.30
2018-12-22T15:27:51.612Z,74.05
2018-12-22T15:30:20.063Z,74.51
2018-12-22T15:32:54.446Z,74.60
2018-12-22T15:35:18.837Z,73.58
2018-12-22T15:37:47.079Z,74.29
2018-12-22T15:40:15.523Z,73.10
2018-12-22T15:42:43.825Z,74.72
2018-12-22T15:45:16.494Z,75.01
2018-12-22T15:47:46.099Z,74.59
2018-12-22T15:50:27.920Z,75.42
2018-12-22T15:52:56.981Z,74.46
2018-12-22T15:55:25.230Z,74.20
2018-12-22T15:57:53.507Z,74.25
2018-12-22T16:00:21.849Z,74.33
2018-12-22T16:02:53.537Z,74.48
2018-12-22T16:05:20.375Z,73.57
2018-12-22T16:07:48.614Z,74.21
2018-12-22T16:10:16.857Z,73.65
2018-12-22T16:12:45.147Z,73.89
2018-12-22T16:15:24.396Z,75.19
2018-12-22T16:17:52.680Z,75.01
2018-12-22T16:20:21.022Z,76.11
2018-12-22T16:22:57.130Z,74.86
2018-12-22T16:25:25.786Z,74.49
2018-12-22T16:27:59.395Z,75.81
2018-12-22T16:33:14.147Z,77.08
2018-12-22T16:35:42.493Z,76.40
2018-12-22T16:38:10.773Z,75.99
2018-12-22T16:40:39.022Z,76.41
2018-12-22T16:43:10.245Z,77.94
2018-12-22T16:45:41.313Z,78.68
2018-12-22T16:48:09.559Z,77.94
2018-12-22T16:50:38.398Z,79.29
2018-12-22T16:53:06.703Z,78.50
2018-12-22T16:55:35.154Z,79.49
2018-12-22T16:58:12.916Z,79.80
2018-12-22T17:01:11.096Z,79.25
2018-12-22T17:03:39.353Z,79.13
2018-12-22T17:06:09.947Z,79.18
2018-12-22T17:08:39.529Z,80.25
2018-12-22T17:11:08.472Z,79.39
2018-12-22T17:13:36.810Z,78.73
2018-12-22T17:16:05.393Z,77.87
2018-12-22T17:18:33.656Z,76.68
2018-12-22T17:21:09.644Z,76.55
2018-12-22T17:23:56.777Z,76.99
2018-12-22T17:26:28.747Z,77.90
2018-12-22T17:28:57.001Z,78.18
2018-12-22T17:31:25.317Z,78.32
2018-12-22T17:33:53.669Z,77.93
2018-12-22T17:36:21.952Z,81.02
2018-12-22T17:38:50.192Z,86.33
2018-12-22T17:41:18.436Z,90.42
2018-12-22T17:43:46.780Z,92.45
2018-12-22T17:46:15.169Z,91.13
2018-12-22T17:48:43.476Z,90.07
2018-12-22T17:51:12.790Z,89.38
2018-12-22T17:53:41.085Z,89.56
2018-12-22T17:56:09.368Z,89.71
2018-12-22T17:58:37.623Z,86.11
2018-12-22T18:01:05.906Z,84.91
2018-12-22T18:03:34.255Z,84.64
2018-12-22T18:06:02.548Z,82.58
2018-12-22T18:08:30.903Z,80.15
2018-12-22T18:10:59.132Z,80.89
2018-12-22T18:13:28.239Z,81.00
2018-12-22T18:15:56.571Z,80.49
2018-12-22T18:18:24.868Z,79.32
2018-12-22T18:20:53.196Z,79.77
2018-12-22T18:23:21.508Z,78.90
2018-12-22T18:25:49.749Z,80.29
2018-12-22T18:28:17.991Z,79.01
2018-12-22T18:30:46.271Z,78.93
2018-12-22T18:33:14.564Z,80.05
2018-12-22T18:35:42.810Z,79.21
2018-12-22T18:38:11.296Z,78.96
2018-12-22T18:40:39.540Z,78.70
2018-12-22T18:43:07.999Z,78.77
2018-12-22T18:45:36.291Z,78.73
2018-12-22T18:48:04.640Z,77.61
2018-12-22T18:50:32.928Z,78.06
2018-12-22T18:53:01.168Z,78.45
2018-12-22T18:55:29.457Z,78.67
2018-12-22T18:57:57.998Z,77.53
2018-12-22T19:00:26.283Z,77.85
2018-12-22T19:02:54.588Z,76.10
2018-12-22T19:05:22.836Z,76.14
2018-12-22T19:07:51.076Z,77.01
2018-12-22T19:10:27.091Z,75.45
2018-12-22T19:12:56.214Z,75.45
2018-12-22T19:15:24.625Z,75.90
2018-12-22T19:17:52.911Z,74.37
2018-12-22T19:20:26.924Z,74.83
2018-12-22T19:22:55.209Z,76.37
2018-12-22T19:25:24.411Z,76.60
2018-12-22T19:27:52.655Z,76.36
2018-12-22T19:30:20.936Z,76.49
2018-12-22T19:32:49.434Z,77.37
2018-12-22T19:35:17.671Z,77.18
2018-12-22T19:37:45.913Z,76.84
2018-12-22T19:40:14.302Z,77.05
2018-12-22T19:42:42.629Z,77.09
2018-12-22T19:45:10.951Z,77.58
2018-12-22T19:47:39.200Z,76.76
2018-12-22T19:50:07.987Z,78.04
2018-12-22T19:52:36.252Z,77.28
2018-12-22T19:55:06.710Z,77.48
2018-12-22T19:57:34.993Z,76.63
2018-12-22T20:00:03.324Z,77.05
2018-12-22T20:02:31.657Z,77.36
2018-12-22T20:05:00.081Z,76.92
2018-12-22T20:07:28.741Z,77.65
2018-12-22T20:09:56.986Z,78.68
2018-12-22T20:12:25.278Z,79.06
2018-12-22T20:14:53.584Z,79.26
2018-12-22T20:17:21.983Z,79.20
2018-12-22T20:19:50.224Z,80.17
2018-12-22T20:22:18.559Z,80.13
2018-12-22T20:24:46.892Z,80.40
2018-12-22T20:27:15.254Z,80.61
2018-12-22T20:29:43.594Z,80.75
2018-12-22T20:32:11.904Z,80.95
2018-12-22T20:34:40.149Z,80.17
2018-12-22T20:37:08.389Z,80.73
2018-12-22T20:39:36.675Z,80.54
2018-12-22T20:42:04.956Z,80.53
2018-12-22T20:44:33.205Z,80.82
2018-12-22T20:47:01.487Z,79.71
2018-12-22T20:49:29.735Z,80.54
2018-12-22T20:51:58.338Z,80.82
2018-12-22T20:54:26.613Z,81.34
2018-12-22T20:56:54.852Z,80.95
2018-12-22T20:59:23.148Z,80.21
2018-12-22T21:01:51.415Z,79.14
2018-12-22T21:04:20.231Z,79.22
2018-12-22T21:06:48.654Z,79.32
2018-12-22T21:09:16.903Z,79.48
2018-12-22T21:11:45.229Z,80.33
2018-12-22T21:14:13.458Z,80.01
2018-12-22T21:16:41.749Z,79.85
2018-12-22T21:19:10.037Z,80.66
2018-12-22T21:21:38.348Z,79.28
2018-12-22T21:24:06.655Z,79.06
2018-12-22T21:26:34.933Z,79.11
2018-12-22T21:29:03.697Z,78.96
2018-12-22T21:31:31.946Z,79.35
2018-12-22T21:34:00.185Z,79.42
2018-12-22T21:36:28.488Z,79.92
2018-12-22T21:38:56.740Z,79.82
2018-12-22T21:41:24.987Z,79.88
2018-12-22T21:43:53.263Z,80.16
2018-12-22T21:46:21.508Z,80.00
2018-12-22T21:48:49.788Z,80.26
2018-12-22T21:51:18.031Z,80.27
2018-12-22T21:53:46.358Z,80.41
2018-12-22T21:56:14.601Z,79.45
2018-12-22T21:58:43.103Z,79.48
2018-12-22T22:01:11.343Z,79.25
2018-12-22T22:03:39.642Z,79.21
2018-12-22T22:06:08.036Z,78.86
2018-12-22T22:08:36.319Z,79.60
2018-12-22T22:11:04.559Z,79.83
2018-12-22T22:13:33.497Z,78.50
2018-12-22T22:16:01.834Z,79.24
2018-12-22T22:18:30.120Z,78.82
2018-12-22T22:20:58.373Z,78.67
2018-12-22T22:23:26.654Z,79.39
2018-12-22T22:25:54.904Z,78.79
2018-12-22T22:28:23.167Z,78.98
2018-12-22T22:30:51.440Z,78.92
2018-12-22T22:33:19.736Z,78.54
2018-12-22T22:35:47.965Z,78.73
2018-12-22T22:38:16.244Z,78.22
2018-12-22T22:40:44.507Z,79.17
2018-12-22T22:43:12.774Z,78.18
2018-12-22T22:45:41.007Z,78.16
2018-12-22T22:48:09.296Z,78.60
2018-12-22T22:50:37.546Z,78.36
2018-12-22T22:53:05.864Z,78.60
2018-12-22T22:55:34.125Z,79.09
2018-12-22T22:58:02.500Z,78.10
2018-12-22T23:03:10.919Z,77.92
2018-12-22T23:05:39.265Z,77.70
2018-12-22T23:08:07.536Z,78.03
2018-12-22T23:10:36.656Z,78.55
2018-12-22T23:13:04.896Z,78.63
2018-12-22T23:15:33.180Z,78.90
2018-12-22T23:18:01.429Z,79.31
2018-12-22T23:20:29.684Z,78.70
2018-12-22T23:22:57.957Z,78.97
2018-12-22T23:25:26.207Z,79.42
2018-12-22T23:27:54.531Z,78.90
2018-12-22T23:30:22.769Z,79.67
2018-12-22T23:32:51.151Z,79.38
2018-12-22T23:35:19.538Z,78.75
2018-12-22T23:37:47.772Z,78.11
2018-12-22T23:40:16.028Z,78.27
2018-12-22T23:42:44.320Z,77.61
2018-12-22T23:45:12.643Z,77.94
2018-12-22T23:47:40.911Z,77.87
2018-12-22T23:50:09.264Z,77.59
2018-12-22T23:52:37.524Z,77.85
2018-12-22T23:55:05.855Z,78.03
2018-12-22T23:57:34.313Z,77.28
